Weather at Gold Coast Airport

Public forecast

Using degrees Celsius for public forecast. Weather courtesy of forecast.io.

Current aviation weather report (METAR) for Gold Coast Airport

2024/06/13 09:30 (retrieved 29 minutes ago)

YBCG 130930Z AUTO 25006KT 9999 // NCD 12/10 Q1018 RF000/0000

Aviation forecast (TAF) for Gold Coast Airport

2024/06/13 09:51 (retrieved 8 minutes ago)

TAF YBCG 130808Z 1309/1406 24005KT 9999 FEW035 FM132300 22010KT CAVOK FM140000 VRB05KT CAVOK